Chisholm Hibbing Airport
KHIB : now visible

Airfield :











YOU CAN JOIN US ON...

 
LOGIN :

Register | Disclaimer

   EN    FR    IT 

 









Legend :    VFR   Marginal VFR   IFR   Intensive IFR   Very Intensive IFR
Visi :
Ceiling :
>= 8 km
>= 3000ft
5 to 8 km
1000 to 3000 ft
1500m to 5 km
500 to 1000 ft
800 to 1500m
200 to 500 ft
< 800m
< 200 ft
Symbols :   Thunderstorms  Fog  Heavy snow  Heavy precipitations  Wind > 20 kt







- Airport Elevation : 1354 ft
- IATA code : HIB


KHIB - Chisholm Hibbing

CURRENT METAR :
  • 190853Z AUTO 00000KT 9SM CLR 04/04 A2991 RMK AO2 SLP132 T00440044 51006

EXPIRED METARs :
  • 190753Z AUTO 00000KT 10SM CLR 06/06 A2990 RMK AO2 SLP131 T00560056
  • 190653Z AUTO 00000KT 10SM CLR 06/06 A2990 RMK AO2 SLP130 T00560056

TAF KHIB
Valid from the 19 at 06:00 until the 20 at 06:00 UTC


190536Z 1906/2006 VRB02KT P6SM SKC
TEMPO 1908/1912 4SM BR
FM191200 22004KT P6SM SKC
FM191500 23010G20KT P6SM FEW040
FM200000 24006KT P6SM SKC
No reported NOTAMs for that airfield.



MET'MAP, your aeronautical weather chart ! - Copyright ORBIFLY December 2007 - Disclaimer

ORBIFLY MET'MAP TEAM :

Programming & Development : Alexandra Zaïnal
Concept & Development : Baudouin d'Aumeries
Co-Development & Prog : Marc-Olivier Méhu
Technical & hardware support : Manuel Goepfert

Contact : metmap@orbifly.com




SOURCES & CREDITS :

   NOAA       Earth
Advisory